Race profile

IAAF World Championships
London ENG
06 Aug 2017
Road
Marathon
Record quality course
Men: 105.96 sec (2.51 sec/km)
Women: 185.52 sec (4.39 sec/km)
Men: 711
Women: 861
$300,000
IAAF World Championships

Results (men)

Finished Time Flags Given name Surname Alternate name Citizenship Birth date Prize money Actions
1 2:08:27 Geoffrey Kirui Kipkorir KEN 16 Feb 1993 $60,000
2 2:09:49 Tamrat Tola Abera ETH 11 Aug 1991 $30,000
3 2:09:51 Alphonce Felix Simbu TAN 08 Sep 1985 $20,000
4 2:10:17 Callum Hawkins SCO 22 Jun 1992 $15,000
5 2:10:56 Gideon Kipketer Kipkemoi KEN 11 Oct 1992 $10,000
6 2:10:56 Daniele Meucci ITA 07 Oct 1985 $6,000
7 2:12:07 Yohannes Gebregiorgis Gebrehiwot ETH 1989 $5,000
8 2:12:16 Daniel Kinyua Wanjiru KEN 26 May 1992 $4,000
9 2:12:19 Yuki Kawauchi JPN 05 Mar 1987
10 2:12:41 Kentaro Nakamoto JPN 07 Dec 1982
11 2:13:29 Solomon Mutai Munyao UGA 22 Oct 1992
12 2:14:05 Ezekiel Ngimba Jafari TAN 17 Aug 1985
13 2:14:22 Abdihakim Ulad DEN 14 Jun 1991
14 2:14:29 William Tanui Biwott Ozbilen TUR 15 Jan 1986
15 2:15:08 Dechase Leche Shume BRN 28 May 1989
16 2:15:14 Elkanah Kibet Kipchumba USA 06 Feb 1986
17 2:15:22 Javier Guerra Polo ESP 10 Nov 1983
18 2:15:34 Igor Olefirenko UKR 14 Mar 1990
19 2:15:36 Tsegay Mekonen Assefa ETH 15 Jun 1995
20 2:16:00 Ernesto-Andrés Zamora URU 13 Apr 1983
21 2:16:14 Desmond Mokgobu RSA 23 Nov 1988
22 2:16:21 Michael Clohisey IRL 13 Jan 1986
23 2:16:28 Valentin Pfeil AUT 17 Jul 1988
24 2:16:34 Remigius Kancys LTU 17 Jul 1987
25 2:16:37 Derlis-Ramon Ayala Sanchez PAR 07 Jan 1990
26 2:16:54 Hiroto Inoue JPN 06 Jan 1993
27 2:17:01 Igor Russ UKR 04 Jun 1988
28 2:17:13 Thonakal Gopi IND 24 May 1988
29 2:17:36 Mert Girmalegese Bayrak Selim TUR 30 Nov 1987
30 2:17:50 Mohamed-Reda El Araby MAR 12 Nov 1989
31 2:17:59 Andrew Davies WAL 30 Oct 1979
32 2:18:12 Mikael Ekvall SWE 18 Jun 1989
33 2:18:37 Pardon Ndhlovu ZIM 23 Aug 1987
34 2:18:42 Munkhbayar Narandulum MGL 28 Oct 1990
35 2:18:51 Reonard Namupala NAM 28 Mar 1982
36 2:18:54 Yuriy Rusyuk UKR 03 May 1987
37 2:19:45 Paulus Iyambo NAM 18 Mar 1982
38 2:20:05 Stephano Huche Gwandu TAN 15 Nov 1990
39 2:20:06 Joshua Griffiths WAL 03 Nov 1993
40 2:20:41 Tiidrek Nurme EST 18 Nov 1985
41 2:21:22 Ghebrezgiabhier Kibrom Weldemicael ERI 06 Sep 1995
42 2:21:22 Robert Curtis USA 28 Nov 1984
43 2:21:24 Robert Chemonges UGA 15 Oct 1997
45 2:21:44 Jack Colreavy AUS 15 Jun 1989
46 2:21:48 Byambajev Tseveenravden MGL 07 Jul 1990
47 2:21:52 Millen Matende ZIM 23 Sep 1982
48 2:21:55 Ser-Od Bat-Ochir MGL 07 Oct 1981
49 2:22:10 Leslie-Rigoberto Encina CHI 02 Jan 1982
50 2:22:19 Hassan Chani BRN 05 May 1988
51 2:22:20 Ignas Brasevicius LTU 21 Sep 1984

Results (women)

Finished Time Flags Given name Surname Alternate name Citizenship Birth date Prize money Actions
1 2:27:11 Rose Chelimo BRN 12 Jul 1989 $60,000
2 2:27:18 Edna Kiplagat Ngeringwony KEN 15 Nov 1979 $30,000
3 2:27:18 Amy Cragg Hastings USA 21 Jan 1984 $20,000
4 2:27:21 Filomena Cheyech Daniel KEN 05 Jul 1982 $15,000
5 2:27:58 Demise Shure Ware ETH 21 Jan 1996 $10,000
6 2:28:17 Eunice Kirwa Jepkirui BRN 20 May 1984 $6,000
7 2:28:19 Helah Kiprop Jelegat KEN 07 Apr 1985 $5,000
8 2:28:49 Mare Dibaba Hurssa Ibrahimova ETH 20 Oct 1989 $4,000
9 2:28:59 Jessica Trengove AUS 15 Aug 1987
10 2:29:01 Birhane Dibaba Adugna ETH 11 Sep 1993
11 2:29:32 Serena Burla Ramsey USA 29 Jul 1982
12 2:29:43 Aselefech Mergia Medessa ETH 23 Jan 1985
13 2:29:48 Charlotte Purdue ENG 10 Jun 1991
14 2:29:56 Eva Vrabcova Nyvltova CZE 06 Feb 1986
15 2:30:29 Hye-Gyong Kim PRK 09 Mar 1993
16 2:30:36 Mao Kiyota JPN 12 Sep 1993
17 2:31:31 Yuka Ando JPN 16 Mar 1994
18 2:31:36 Alyson Dixon ENG 24 Sep 1978
19 2:32:01 Helalia Johannes Lukeiko NAM 13 Aug 1980
20 2:33:26 Sinead Diver AUS 17 Feb 1977
21 2:33:37 Marta Esteban Poveda ESP 06 Nov 1982
22 2:33:39 Gelete Fate Tola GER 22 Oct 1987
23 2:35:03 Izabela Trzaskalska POL 09 Jan 1988
24 2:35:27 Milly Clark AUS 01 Mar 1989
25 2:35:33 Anne-Mari Hyryläinen FIN 15 Aug 1978
26 2:35:34 Ines Melchor Huiza PER 30 Aug 1986
27 2:36:03 Risa Shigetomo JPN 29 Aug 1987
28 2:36:42 Filomena Costa POR 22 Feb 1985
29 2:36:46 Un-Ok Jo PRK 29 Aug 1992
30 2:37:24 Beata Naigambo Nandajala NAM 11 Mar 1980
31 2:37:40 Ilona Marhele LAT 05 Apr 1986
32 2:37:50 Rosalba Chaca ECU 08 Dec 1982
33 2:38:26 Claire McCarthy Gibbons IRL 29 Jun 1976
34 2:38:38 Kyung-Hee Lim KOR 16 Nov 1982
35 2:38:52 Dagmara-Anna Handzlik CYP 20 Feb 1986
36 2:39:39 Katarzyna Kowalska POL 07 Apr 1985
37 2:39:47 Lindsay Flanagan USA 24 Jan 1991
38 2:39:52 Seong-Eun Kim KOR 24 Feb 1989
39 2:39:59 Katharina Heinig GER 22 Aug 1989
40 2:40:15 Mapaseka Makhanya RSA 09 Apr 1985
41 2:40:22 Lonah Chemtai Korlima ISR 12 Dec 1988
42 2:40:28 Viktoriya Polyudina KGZ 29 Jun 1989
43 2:41:03 Tracy Barlow ENG 18 Jun 1985
44 2:41:29 Dariya Mykhailova UKR 29 Apr 1989
45 2:41:44 Vaida Zusinaite LTU 13 Jan 1988
46 2:42:47 Paula Gonzalez Berodia ESP 02 May 1985
47 2:42:53 Rutenda Nyahoro ZIM 11 Nov 1988
48 2:43:12 Tatyana Vernygor UKR 23 Jan 1983
49 2:43:13 Wilma-Janeth Arizapana Yucra PER 01 Oct 1982
50 2:44:02 Lavinia Haitope NAM 03 Mar 1990